LTFJLTBR

Guest
Details From LTFJ - SABIHA GOKCEN
To LTBR - YENISEHIR
Flight Number -
Tags generated
Created
Modified
Stats Distance 42 nm / 78 km
Max Altitude 300 ft / 91 m
Waypoints 3
Social Downloads 3
Likes 0
Share VATSIM

Download

Looking for another format? Having issues loading an existing format? Contact us
Advertisement - Login to hide

Notes

Basic altitude profile: - Ascent Rate: 2500ft/min - Ascent Speed: 250kts - Cruise Altitude: 35000ft - Cruise Speed: 420kts - Descent Rate: 1500ft/min - Descent Speed: 250kts Options: - Use NATs: yes - Use PACOTS: yes - Use low airways: yes - Use high airways: yes

Route

LTFJ BRY LTBR

ID Type Via Altitude Latitude Longitude Leg Dist Tot Dist Heading (true) Name
O LTFJ APT - 0 ft / 0 m 40.89855˚ 29.30922˚ - 0 nm - SABIHA GOKCEN
BRY NDB - 300 ft / 91 m 40.26253˚ 29.59403˚ 40 nm 40 nm 161° / 161° YENISEHIR NDB
O LTBR APT - 0 ft / 0 m 40.25521˚ 29.56257˚ 1 nm 41 nm 253° / 253° YENISEHIR

Altitude Profile

Advertisement - Login to hide

LTFJ

Details ICAO LTFJ (SAW)
Name SABIHA GOKCEN
Region Turkey
Timezone Europe/Istanbul (UTC+3.0)
Stats Elevation 312 ft / 95 m (AMSL)
Location 40.898552° 29.309221°
Runways 1
Magnetic Variation 5.473° E

METAR

LTFJ 131850Z 28002KT CAVOK 11/08 Q1017 NOSIG

Decode

TAF

TAF LTFJ 131640Z 1318/1418 VRB02KT CAVOK BECMG 1406/1409 23012KT SCT035 BKN100 PROB30 TEMPO 1411/1415 -TSRA FEW020CB BKN030

Decode

Departure Runways

ID Width Length Bearing (true) Bearing (mag) Surface Threshold Offset Overrun Length
06 148 ft / 45 m 9,690 ft / 2,953 m 64.01° 58.54° Concrete 0 ft / 0 m 197 ft / 60 m
24 148 ft / 45 m 9,690 ft / 2,953 m 244.03° 238.56° Concrete 0 ft / 0 m 197 ft / 60 m

LTBR

Details ICAO LTBR (YEI)
Name YENISEHIR
Region Turkey
Timezone Europe/Istanbul (UTC+3.0)
Stats Elevation 764 ft / 233 m (AMSL)
Location 40.255208° 29.562569°
Runways 2
Magnetic Variation 5.407° E

METAR

LTBR 131850Z 28002KT 2400 1100SE R25/0900U R07/P1500U BCFG NSC 05/05 Q1018 NOSIG

Decode

TAF

TAF AMD TAF AMD LTBR 131824Z 1318/1418 VRB02KT 2000 BCFG NSC BECMG 1320/1324 0100 FG VV001 BECMG 1408/1410 2000 BR SCT005 BECMG 1410/1412 7000 NSC

Decode

Destination Runways

ID Width Length Bearing (true) Bearing (mag) Surface Threshold Offset Overrun Length
07L 148 ft / 45 m 9,798 ft / 2,987 m 74.45° 69.04° Concrete 0 ft / 0 m 1,075 ft / 328 m
07R 98 ft / 30 m 9,799 ft / 2,987 m 74.45° 69.04° Concrete 0 ft / 0 m 137 ft / 42 m
25L 98 ft / 30 m 9,799 ft / 2,987 m 254.47° 249.06° Concrete 0 ft / 0 m 603 ft / 184 m
25R 148 ft / 45 m 9,798 ft / 2,987 m 254.48° 249.07° Concrete 0 ft / 0 m 1,082 ft / 330 m

Approach Navaids

Runway Type Ident Frequency Range Bearing (true) Bearing (mag) Slope Elevation
25R Localiser IYEN 109.70 MHz 18 nm / 33 km 254.21° 248.81° - 764 ft / 233 m (AMSL)
25R Glidescope IYEN 109.70 MHz 10 nm / 19 km 254.46° 249.06° 3.00° 798 ft / 243 m (AMSL)